Grant Township, Minnesota
Current Conditions -  °F | °C
As of 7:31 PM on Monday 20 Oct 2014 (Local Time) from K21D Reporting Station
Clear Clear  
Wind Chill: 52°   Ceiling: Unl
Heat Index: 52°   Visibility: 10mi
Dew Point: 41°   Wind: 6mph
Humidity: 67%   Direction: 20°NNE
Pressure: 30.05"   Gusts: NA
Location:  45.051°N, 92.9612°W
Report Text: K21D 210031Z AUTO 02005KT 10SM CLR 11/05 A3005 RMK AO2
Loading
Personal Weather Stations






























Interactive Weather Map
Tropical Storm Tracking
New forecast layout! Learn more

10-Day Weather Forecast

Advertisements
Track Severe Weather on mobile